createdAt,value
2022-10-10T00:00:50.021Z,69.98
2022-10-10T00:03:18.498Z,69.97
2022-10-10T00:05:47.818Z,69.54
2022-10-10T00:08:15.516Z,70.10
2022-10-10T00:10:43.267Z,70.07
2022-10-10T00:13:11.013Z,69.74
2022-10-10T00:15:38.831Z,70.23
2022-10-10T00:18:06.644Z,70.35
2022-10-10T00:20:34.319Z,69.78
2022-10-10T00:23:03.367Z,70.31
2022-10-10T00:25:31.207Z,70.56
2022-10-10T00:28:02.031Z,69.93
2022-10-10T00:30:29.819Z,70.19
2022-10-10T00:32:59.450Z,70.33
2022-10-10T00:35:27.859Z,70.52
2022-10-10T00:37:55.650Z,69.88
2022-10-10T00:40:25.787Z,69.99
2022-10-10T00:42:53.887Z,70.41
2022-10-10T00:45:29.896Z,70.13
2022-10-10T00:48:01.771Z,69.81
2022-10-10T00:50:35.409Z,70.38
2022-10-10T00:53:06.099Z,70.35
2022-10-10T00:55:36.721Z,70.07
2022-10-10T00:58:05.689Z,70.63
2022-10-10T01:00:33.524Z,70.05
2022-10-10T01:03:01.299Z,70.25
2022-10-10T01:05:29.195Z,70.11
2022-10-10T01:07:57.268Z,70.18
2022-10-10T01:10:25.327Z,69.79
2022-10-10T01:13:08.591Z,69.73
2022-10-10T01:15:47.414Z,70.23
2022-10-10T01:18:25.340Z,70.12
2022-10-10T01:21:14.463Z,69.94
2022-10-10T01:24:11.728Z,69.89
2022-10-10T01:26:59.011Z,70.07
2022-10-10T01:29:32.425Z,69.57
2022-10-10T01:32:06.382Z,69.91
2022-10-10T01:34:42.461Z,69.73
2022-10-10T01:37:18.066Z,69.42
2022-10-10T01:39:56.226Z,69.80
2022-10-10T01:42:29.544Z,69.59
2022-10-10T01:44:59.219Z,69.62
2022-10-10T01:47:27.012Z,69.60
2022-10-10T01:49:58.934Z,69.69
2022-10-10T01:52:43.674Z,69.98
2022-10-10T01:55:29.563Z,69.45
2022-10-10T01:58:10.828Z,69.59
2022-10-10T02:00:49.867Z,69.23
2022-10-10T02:03:21.539Z,69.54
2022-10-10T02:05:56.158Z,69.73
2022-10-10T02:08:30.371Z,69.52
2022-10-10T02:11:01.567Z,69.24
2022-10-10T02:13:36.275Z,69.65
2022-10-10T02:16:10.124Z,69.17
2022-10-10T02:18:38.426Z,69.26
2022-10-10T02:21:09.529Z,69.12
2022-10-10T02:23:38.017Z,69.13
2022-10-10T02:26:05.793Z,69.69
2022-10-10T02:28:40.961Z,69.55
2022-10-10T02:31:13.765Z,69.22
2022-10-10T02:33:49.441Z,69.61
2022-10-10T02:36:19.857Z,69.50
2022-10-10T02:38:48.907Z,69.48
2022-10-10T02:41:19.447Z,69.73
2022-10-10T02:43:48.852Z,69.62
2022-10-10T02:46:18.363Z,69.53
2022-10-10T02:48:46.113Z,69.65
2022-10-10T02:51:16.837Z,69.65
2022-10-10T02:53:44.602Z,69.36
2022-10-10T02:56:12.511Z,69.41
2022-10-10T02:58:40.234Z,70.02
2022-10-10T03:01:07.897Z,69.48
2022-10-10T03:03:37.106Z,70.13
2022-10-10T03:06:05.157Z,69.73
2022-10-10T03:08:33.238Z,69.39
2022-10-10T03:11:02.469Z,69.82
2022-10-10T03:13:30.575Z,69.70
2022-10-10T03:15:58.372Z,70.25
2022-10-10T03:18:26.122Z,70.17
2022-10-10T03:20:56.937Z,70.10
2022-10-10T03:23:25.751Z,70.02
2022-10-10T03:25:53.489Z,70.06
2022-10-10T03:28:21.578Z,69.82
2022-10-10T03:30:49.831Z,70.30
2022-10-10T03:33:17.498Z,70.27
2022-10-10T03:35:45.356Z,69.94
2022-10-10T03:38:14.856Z,70.37
2022-10-10T03:40:44.301Z,70.39
2022-10-10T03:43:14.012Z,70.46
2022-10-10T03:45:44.232Z,70.71
2022-10-10T03:48:12.809Z,70.58
2022-10-10T03:50:40.521Z,70.54
2022-10-10T03:53:08.468Z,70.89
2022-10-10T03:55:40.816Z,70.91
2022-10-10T03:58:08.603Z,71.10
2022-10-10T04:00:36.748Z,70.95
2022-10-10T04:03:06.324Z,71.37
2022-10-10T04:05:35.304Z,71.12
2022-10-10T04:08:03.233Z,71.88
2022-10-10T04:10:34.188Z,71.80
2022-10-10T04:13:03.327Z,71.44
2022-10-10T04:15:31.755Z,71.53
2022-10-10T04:17:59.480Z,71.62
2022-10-10T04:20:28.141Z,72.03
2022-10-10T04:22:55.903Z,72.02
2022-10-10T04:25:23.855Z,71.75
2022-10-10T04:27:51.619Z,71.74
2022-10-10T04:30:21.028Z,71.87
2022-10-10T04:32:49.079Z,71.72
2022-10-10T04:35:17.002Z,71.86
2022-10-10T04:37:45.692Z,71.62
2022-10-10T04:40:13.458Z,72.43
2022-10-10T04:42:41.200Z,72.12
2022-10-10T04:45:09.930Z,72.15
2022-10-10T04:47:39.002Z,72.09
2022-10-10T04:50:07.887Z,72.24
2022-10-10T04:52:35.700Z,71.94
2022-10-10T04:55:03.456Z,72.42
2022-10-10T04:57:34.075Z,71.96
2022-10-10T05:00:01.947Z,71.94
2022-10-10T05:02:29.745Z,72.20
2022-10-10T05:04:58.976Z,72.22
2022-10-10T05:07:30.950Z,71.97
2022-10-10T05:09:58.786Z,72.15
2022-10-10T05:12:26.824Z,72.41
2022-10-10T05:14:54.628Z,72.09
2022-10-10T05:17:22.408Z,72.40
2022-10-10T05:19:51.563Z,72.50
2022-10-10T05:22:20.661Z,72.31
2022-10-10T05:24:48.367Z,72.18
2022-10-10T05:27:16.118Z,72.46
2022-10-10T05:29:43.751Z,72.54
2022-10-10T05:32:11.646Z,72.17
2022-10-10T05:34:39.424Z,72.96
2022-10-10T05:37:07.207Z,72.92
2022-10-10T05:39:36.455Z,72.75
2022-10-10T05:42:04.918Z,73.23
2022-10-10T05:44:34.969Z,72.90
2022-10-10T05:47:04.361Z,73.14
2022-10-10T05:49:32.307Z,72.95
2022-10-10T05:52:00.207Z,73.21
2022-10-10T05:54:28.298Z,73.38
2022-10-10T05:56:57.431Z,73.29
2022-10-10T05:59:25.349Z,73.56
2022-10-10T06:01:53.694Z,73.74
2022-10-10T06:04:21.515Z,73.39
2022-10-10T06:06:49.316Z,73.60
2022-10-10T06:09:17.388Z,73.36
2022-10-10T06:11:45.244Z,73.38
2022-10-10T06:14:14.411Z,73.24
2022-10-10T06:16:45.185Z,73.84
2022-10-10T06:19:15.045Z,73.65
2022-10-10T06:21:43.038Z,73.59
2022-10-10T06:24:11.724Z,73.52
2022-10-10T06:26:39.610Z,73.71
2022-10-10T06:29:07.484Z,73.94
2022-10-10T06:31:39.367Z,73.62
2022-10-10T06:34:07.374Z,73.19
2022-10-10T06:36:35.201Z,72.99
2022-10-10T06:39:02.962Z,73.78
2022-10-10T06:41:35.194Z,73.61
2022-10-10T06:44:02.885Z,73.70
2022-10-10T06:46:30.796Z,73.36
2022-10-10T06:49:00.177Z,73.16
2022-10-10T06:51:27.955Z,73.70
2022-10-10T06:53:57.872Z,73.63
2022-10-10T06:56:28.777Z,73.74
2022-10-10T06:59:02.299Z,73.60
2022-10-10T07:01:31.725Z,73.57
2022-10-10T07:04:00.799Z,73.30
2022-10-10T07:06:32.518Z,73.12
2022-10-10T07:09:02.398Z,73.00
2022-10-10T07:11:30.253Z,73.10
2022-10-10T07:13:58.080Z,72.95
2022-10-10T07:16:25.975Z,73.11
2022-10-10T07:18:53.702Z,73.10
2022-10-10T07:21:22.897Z,72.99
2022-10-10T07:23:50.674Z,72.90
2022-10-10T07:26:22.093Z,72.79
2022-10-10T07:28:49.994Z,72.77
2022-10-10T07:31:17.771Z,73.06
2022-10-10T07:33:50.509Z,72.70
2022-10-10T07:36:19.576Z,72.66
2022-10-10T07:38:52.917Z,72.90
2022-10-10T07:41:22.971Z,72.91
2022-10-10T07:43:55.180Z,72.55
2022-10-10T07:46:22.966Z,73.11
2022-10-10T07:48:50.665Z,73.06
2022-10-10T07:51:19.092Z,73.01
2022-10-10T07:53:47.769Z,72.81
2022-10-10T07:56:16.905Z,73.11
2022-10-10T07:58:44.615Z,73.09
2022-10-10T08:01:14.154Z,73.18
2022-10-10T08:03:42.420Z,73.27
2022-10-10T08:06:12.130Z,72.95
2022-10-10T08:08:50.047Z,73.02
2022-10-10T08:11:20.550Z,73.02
2022-10-10T08:13:48.480Z,72.86
2022-10-10T08:16:16.920Z,72.84
2022-10-10T08:18:44.754Z,72.54
2022-10-10T08:21:14.549Z,72.26
2022-10-10T08:23:42.813Z,72.01
2022-10-10T08:26:12.649Z,71.79
2022-10-10T08:28:44.709Z,71.71
2022-10-10T08:31:14.996Z,71.55
2022-10-10T08:33:45.838Z,71.29
2022-10-10T08:36:20.265Z,71.13
2022-10-10T08:38:48.525Z,70.95
2022-10-10T08:41:33.012Z,71.05
2022-10-10T08:44:06.457Z,70.87
2022-10-10T08:46:42.276Z,70.98
2022-10-10T08:49:20.431Z,70.93
2022-10-10T08:51:55.644Z,71.04
2022-10-10T08:54:27.014Z,70.97
2022-10-10T08:56:59.668Z,70.61
2022-10-10T08:59:35.055Z,70.58
2022-10-10T09:02:26.334Z,70.60
2022-10-10T09:05:01.530Z,70.44
2022-10-10T09:07:45.080Z,70.31
2022-10-10T09:10:24.166Z,69.87
2022-10-10T09:13:02.935Z,69.40
2022-10-10T09:15:36.251Z,68.66
2022-10-10T09:18:14.666Z,68.60
2022-10-10T09:20:49.849Z,68.28
2022-10-10T09:23:23.290Z,68.06
2022-10-10T09:25:57.184Z,67.59
2022-10-10T09:28:36.662Z,67.66
2022-10-10T09:31:09.614Z,67.89
2022-10-10T09:33:41.410Z,67.58
2022-10-10T09:36:17.598Z,67.41
2022-10-10T09:38:50.322Z,67.99
2022-10-10T09:41:24.840Z,67.75
2022-10-10T09:44:00.004Z,67.35
2022-10-10T09:46:33.248Z,67.30
2022-10-10T09:49:01.648Z,67.28
2022-10-10T09:51:33.910Z,67.14
2022-10-10T09:54:03.536Z,66.94
2022-10-10T09:56:41.035Z,66.52
2022-10-10T09:59:49.430Z,66.28
2022-10-10T10:02:28.261Z,65.43
2022-10-10T10:05:16.944Z,64.78
2022-10-10T10:07:53.729Z,64.75
2022-10-10T10:10:44.633Z,64.46
2022-10-10T10:13:23.119Z,63.75
2022-10-10T10:16:16.159Z,63.59
2022-10-10T10:19:04.270Z,63.59
2022-10-10T10:22:01.766Z,63.05
2022-10-10T10:25:09.858Z,62.34
2022-10-10T10:27:39.627Z,62.47
2022-10-10T10:30:25.351Z,62.45
2022-10-10T10:33:11.044Z,62.39
2022-10-10T10:35:46.748Z,62.55
2022-10-10T10:38:37.516Z,62.50
2022-10-10T10:41:41.895Z,62.32
2022-10-10T10:44:38.813Z,62.66
2022-10-10T10:47:27.767Z,62.56
2022-10-10T10:50:20.225Z,62.13
2022-10-10T10:53:13.429Z,61.73
2022-10-10T10:56:21.967Z,61.32
2022-10-10T11:00:16.572Z,61.63
2022-10-10T11:02:01.944Z,61.51
2022-10-10T11:05:18.901Z,60.47
2022-10-10T11:08:20.019Z,60.94
2022-10-10T11:11:29.783Z,60.92
2022-10-10T11:14:20.241Z,61.55
2022-10-10T11:17:43.180Z,61.56
2022-10-10T11:20:03.449Z,61.42
2022-10-10T11:22:55.969Z,61.27
2022-10-10T11:25:27.834Z,61.36
2022-10-10T11:28:01.183Z,61.60
2022-10-10T11:30:32.626Z,61.57
2022-10-10T11:33:06.764Z,61.26
2022-10-10T11:35:37.898Z,60.87
2022-10-10T11:38:14.161Z,60.49
2022-10-10T11:40:49.464Z,60.68
2022-10-10T11:43:26.516Z,60.96
2022-10-10T11:46:03.260Z,60.72
2022-10-10T11:48:43.603Z,61.06
2022-10-10T11:51:25.923Z,60.92
2022-10-10T11:54:00.583Z,60.52
2022-10-10T11:56:34.335Z,60.37
2022-10-10T11:59:09.219Z,60.07
2022-10-10T12:01:42.175Z,60.50
2022-10-10T12:04:10.046Z,60.12
2022-10-10T12:06:41.896Z,60.22
2022-10-10T12:09:17.483Z,59.75
2022-10-10T12:11:52.603Z,60.23
2022-10-10T12:14:24.125Z,59.99
2022-10-10T12:16:53.026Z,60.10
2022-10-10T12:19:22.946Z,59.80
2022-10-10T12:21:57.272Z,60.14
2022-10-10T12:24:28.996Z,60.22
2022-10-10T12:27:28.963Z,60.32
2022-10-10T12:30:18.905Z,60.80
2022-10-10T12:32:47.340Z,60.75
2022-10-10T12:35:40.376Z,61.09
2022-10-10T12:38:17.816Z,61.28
2022-10-10T12:41:20.222Z,61.50
2022-10-10T12:44:12.374Z,61.37
2022-10-10T12:46:40.527Z,60.86
2022-10-10T12:49:21.334Z,60.76
2022-10-10T12:52:21.650Z,60.62
2022-10-10T12:54:51.467Z,60.72
2022-10-10T12:57:28.474Z,60.97
2022-10-10T13:00:01.187Z,60.55
2022-10-10T13:02:29.966Z,60.32
2022-10-10T13:05:02.307Z,60.50
2022-10-10T13:07:30.730Z,60.72
2022-10-10T13:10:08.834Z,60.34
2022-10-10T13:12:38.031Z,60.34
2022-10-10T13:15:20.084Z,60.27
2022-10-10T13:17:47.847Z,59.57
2022-10-10T13:20:29.856Z,59.65
2022-10-10T13:22:58.663Z,59.44
2022-10-10T13:25:27.439Z,58.47
2022-10-10T13:27:56.686Z,58.76
2022-10-10T13:30:26.491Z,59.06
2022-10-10T13:32:55.996Z,58.94
2022-10-10T13:35:26.144Z,57.90
2022-10-10T13:37:57.308Z,56.09
2022-10-10T13:40:26.561Z,56.29
2022-10-10T13:42:56.489Z,56.74
2022-10-10T13:45:32.080Z,56.74
2022-10-10T13:48:17.276Z,57.67
2022-10-10T13:50:56.793Z,57.91
2022-10-10T13:53:32.412Z,58.26
2022-10-10T13:56:05.571Z,58.34
2022-10-10T13:58:41.950Z,58.56
2022-10-10T14:01:29.498Z,58.96
2022-10-10T14:04:01.111Z,58.80
2022-10-10T14:06:29.949Z,58.95
2022-10-10T14:09:04.789Z,59.12
2022-10-10T14:11:34.806Z,59.03
2022-10-10T14:14:09.181Z,59.12
2022-10-10T14:16:36.865Z,58.79
2022-10-10T14:19:04.688Z,59.13
2022-10-10T14:21:32.577Z,59.34
2022-10-10T14:24:00.275Z,59.39
2022-10-10T14:26:28.051Z,59.08
2022-10-10T14:28:55.936Z,59.19
2022-10-10T14:31:28.711Z,58.39
2022-10-10T14:33:56.709Z,57.87
2022-10-10T14:36:24.466Z,58.42
2022-10-10T14:38:52.478Z,58.12
2022-10-10T14:41:20.184Z,58.23
2022-10-10T14:43:47.913Z,57.63
2022-10-10T14:46:19.623Z,57.25
2022-10-10T14:48:48.859Z,57.78
2022-10-10T14:51:34.911Z,58.17
2022-10-10T14:54:10.982Z,58.14
2022-10-10T14:57:09.062Z,58.07
2022-10-10T14:59:47.377Z,58.27
2022-10-10T15:02:16.642Z,58.10
2022-10-10T15:04:45.970Z,58.58
2022-10-10T15:07:15.178Z,58.68
2022-10-10T15:10:02.484Z,58.92
2022-10-10T15:12:30.741Z,58.71
2022-10-10T15:14:58.691Z,59.28
2022-10-10T15:17:27.238Z,59.41
2022-10-10T15:19:56.439Z,59.52
2022-10-10T15:22:24.282Z,59.74
2022-10-10T15:24:52.017Z,59.88
2022-10-10T15:27:20.026Z,60.32
2022-10-10T15:29:49.424Z,60.62
2022-10-10T15:32:17.344Z,60.61
2022-10-10T15:34:45.157Z,60.90
2022-10-10T15:37:15.419Z,61.56
2022-10-10T15:39:44.715Z,62.03
2022-10-10T15:42:16.290Z,62.81
2022-10-10T15:44:48.021Z,63.44
2022-10-10T15:47:17.697Z,64.01
2022-10-10T15:49:45.615Z,64.76
2022-10-10T15:52:18.686Z,66.34
2022-10-10T15:54:49.317Z,66.88
2022-10-10T15:57:20.765Z,67.32
2022-10-10T15:59:48.684Z,68.19
2022-10-10T16:02:17.151Z,69.27
2022-10-10T16:04:46.105Z,69.04
2022-10-10T16:07:28.628Z,69.88
2022-10-10T16:09:57.864Z,70.07
2022-10-10T16:12:25.796Z,70.86
2022-10-10T16:14:53.604Z,71.73
2022-10-10T16:17:30.495Z,72.05
2022-10-10T16:19:58.250Z,71.91
2022-10-10T16:22:27.343Z,72.07
2022-10-10T16:27:43.922Z,72.46
2022-10-10T16:30:12.696Z,72.49
2022-10-10T16:32:42.641Z,71.96
2022-10-10T16:35:11.372Z,72.36
2022-10-10T16:37:40.510Z,72.44
2022-10-10T16:40:09.243Z,73.33
2022-10-10T16:42:37.102Z,73.92
2022-10-10T16:45:05.532Z,74.82
2022-10-10T16:47:33.320Z,75.90
2022-10-10T16:50:03.626Z,75.97
2022-10-10T16:52:33.170Z,76.64
2022-10-10T16:55:02.445Z,77.08
2022-10-10T16:57:30.609Z,77.46
2022-10-10T16:59:58.631Z,77.22
2022-10-10T17:02:26.383Z,77.76
2022-10-10T17:04:54.168Z,77.57
2022-10-10T17:07:21.863Z,76.25
2022-10-10T17:09:49.676Z,77.22
2022-10-10T17:12:19.415Z,77.22
2022-10-10T17:14:47.213Z,76.38
2022-10-10T17:17:14.982Z,76.41
2022-10-10T17:19:42.845Z,75.52
2022-10-10T17:22:10.694Z,74.82
2022-10-10T17:24:38.484Z,74.31
2022-10-10T17:27:06.402Z,73.92
2022-10-10T17:29:35.551Z,74.17
2022-10-10T17:32:06.474Z,73.77
2022-10-10T17:34:35.337Z,73.31
2022-10-10T17:37:03.879Z,73.48
2022-10-10T17:39:32.832Z,73.22
2022-10-10T17:42:01.044Z,73.25
2022-10-10T17:44:29.105Z,73.41
2022-10-10T17:46:58.359Z,73.12
2022-10-10T17:49:26.467Z,73.53
2022-10-10T17:51:54.472Z,73.57
2022-10-10T17:54:23.462Z,73.70
2022-10-10T17:56:56.029Z,73.46
2022-10-10T17:59:23.936Z,73.29
2022-10-10T18:02:03.435Z,73.00
2022-10-10T18:04:36.106Z,72.39
2022-10-10T18:07:04.085Z,72.37
2022-10-10T18:09:31.994Z,72.38
2022-10-10T18:11:59.943Z,71.68
2022-10-10T18:14:27.810Z,71.73
2022-10-10T18:16:55.906Z,71.65
2022-10-10T18:19:23.731Z,71.96
2022-10-10T18:21:52.998Z,71.53
2022-10-10T18:24:20.973Z,71.73
2022-10-10T18:26:52.579Z,71.55
2022-10-10T18:29:22.485Z,71.57
2022-10-10T18:31:52.533Z,71.21
2022-10-10T18:34:20.451Z,71.49
2022-10-10T18:36:50.230Z,71.48
2022-10-10T18:39:19.953Z,71.54
2022-10-10T18:41:47.969Z,71.44
2022-10-10T18:44:17.722Z,71.27
2022-10-10T18:46:46.208Z,71.86
2022-10-10T18:49:14.848Z,71.72
2022-10-10T18:51:43.689Z,72.24
2022-10-10T18:54:22.779Z,72.72
2022-10-10T18:56:50.607Z,73.04
2022-10-10T18:59:22.144Z,73.10
2022-10-10T19:01:52.305Z,73.35
2022-10-10T19:04:21.716Z,73.29
2022-10-10T19:06:54.683Z,73.42
2022-10-10T19:09:27.200Z,73.48
2022-10-10T19:11:55.286Z,73.85
2022-10-10T19:14:23.230Z,73.89
2022-10-10T19:16:51.215Z,73.96
2022-10-10T19:19:20.346Z,74.24
2022-10-10T19:21:54.586Z,74.46
2022-10-10T19:24:22.589Z,74.60
2022-10-10T19:26:54.798Z,74.75
2022-10-10T19:29:23.327Z,74.93
2022-10-10T19:31:51.612Z,75.15
2022-10-10T19:34:19.515Z,75.38
2022-10-10T19:36:47.303Z,75.28
2022-10-10T19:39:15.251Z,75.36
2022-10-10T19:41:43.106Z,75.65
2022-10-10T19:44:12.336Z,75.52
2022-10-10T19:46:40.389Z,75.63
2022-10-10T19:49:08.391Z,75.52
2022-10-10T19:51:36.164Z,75.83
2022-10-10T19:54:04.060Z,75.94
2022-10-10T19:56:31.994Z,75.94
2022-10-10T19:59:04.249Z,76.17
2022-10-10T20:01:34.040Z,76.25
2022-10-10T20:04:04.177Z,76.45
2022-10-10T20:06:33.365Z,76.12
2022-10-10T20:09:01.366Z,76.32
2022-10-10T20:11:29.355Z,76.46
2022-10-10T20:13:58.443Z,76.82
2022-10-10T20:16:27.698Z,76.67
2022-10-10T20:18:59.105Z,76.74
2022-10-10T20:21:31.754Z,77.02
2022-10-10T20:24:00.288Z,76.84
2022-10-10T20:26:28.630Z,76.84
2022-10-10T20:28:58.082Z,76.51
2022-10-10T20:31:27.760Z,77.06
2022-10-10T20:34:04.121Z,76.57
2022-10-10T20:36:41.073Z,76.58
2022-10-10T20:39:12.680Z,76.77
2022-10-10T20:41:41.780Z,76.89
2022-10-10T20:44:12.630Z,76.91
2022-10-10T20:46:42.988Z,77.03
2022-10-10T20:49:14.057Z,77.10
2022-10-10T20:51:48.333Z,77.10
2022-10-10T20:54:17.727Z,76.75
2022-10-10T20:56:45.689Z,76.76
2022-10-10T20:59:13.786Z,76.76
2022-10-10T21:01:45.137Z,77.05
2022-10-10T21:04:13.986Z,76.87
2022-10-10T21:06:44.026Z,76.79
2022-10-10T21:09:14.026Z,76.58
2022-10-10T21:11:42.506Z,77.09
2022-10-10T21:14:11.863Z,76.79
2022-10-10T21:16:41.791Z,76.72
2022-10-10T21:19:12.248Z,77.25
2022-10-10T21:21:40.563Z,77.20
2022-10-10T21:24:12.202Z,76.93
2022-10-10T21:26:40.869Z,77.01
2022-10-10T21:29:08.833Z,77.05
2022-10-10T21:31:38.459Z,77.04
2022-10-10T21:34:08.406Z,76.63
2022-10-10T21:36:37.407Z,77.19
2022-10-10T21:39:06.905Z,77.18
2022-10-10T21:41:37.736Z,76.93
2022-10-10T21:44:05.979Z,77.75
2022-10-10T21:46:36.968Z,77.30
2022-10-10T21:49:06.943Z,77.73
2022-10-10T21:51:37.334Z,77.82
2022-10-10T21:54:05.310Z,78.02
2022-10-10T21:56:33.753Z,77.74
2022-10-10T21:59:02.980Z,77.87
2022-10-10T22:01:32.949Z,77.42
2022-10-10T22:04:01.668Z,78.04
2022-10-10T22:06:29.616Z,78.29
2022-10-10T22:09:00.344Z,78.35
2022-10-10T22:11:29.880Z,77.89
2022-10-10T22:13:57.709Z,77.66
2022-10-10T22:16:26.900Z,78.01
2022-10-10T22:18:55.672Z,78.22
2022-10-10T22:21:29.201Z,78.32
2022-10-10T22:23:58.976Z,78.47
2022-10-10T22:26:26.894Z,78.24
2022-10-10T22:28:54.774Z,78.14
2022-10-10T22:31:22.614Z,78.14
2022-10-10T22:33:51.924Z,78.37
2022-10-10T22:36:19.872Z,78.41
2022-10-10T22:38:47.870Z,78.86
2022-10-10T22:41:15.724Z,78.71
2022-10-10T22:43:43.544Z,78.99
2022-10-10T22:46:11.454Z,78.29
2022-10-10T22:48:39.561Z,78.38
2022-10-10T22:51:12.290Z,78.41
2022-10-10T22:53:40.722Z,78.34
2022-10-10T22:56:09.366Z,78.50
2022-10-10T22:58:37.270Z,78.55
2022-10-10T23:01:06.578Z,78.58
2022-10-10T23:03:34.567Z,78.60
2022-10-10T23:06:03.155Z,78.74
2022-10-10T23:08:35.664Z,78.62
2022-10-10T23:11:03.570Z,78.96
2022-10-10T23:13:32.766Z,78.24
2022-10-10T23:16:00.631Z,78.50
2022-10-10T23:18:29.016Z,78.24
2022-10-10T23:20:57.118Z,78.51
2022-10-10T23:23:25.123Z,77.82
2022-10-10T23:25:54.553Z,78.42
2022-10-10T23:28:22.763Z,78.72
2022-10-10T23:30:50.544Z,79.23
2022-10-10T23:33:18.664Z,79.00
2022-10-10T23:35:56.697Z,78.48
2022-10-10T23:38:24.468Z,78.75
2022-10-10T23:40:52.457Z,78.08
2022-10-10T23:43:24.850Z,78.04
2022-10-10T23:45:52.712Z,78.03
2022-10-10T23:48:20.961Z,77.60
2022-10-10T23:50:48.732Z,78.38
2022-10-10T23:53:16.550Z,77.79
2022-10-10T23:55:44.988Z,78.06
2022-10-10T23:58:12.811Z,77.63
